Time;durP1;ratioP1;P1;durP2;ratioP2;P2;SDS_P1;SDS_P2;PMS_P1;PMS_P2;Temp;Humidity;BMP_temperature;BMP_pressure;BME280_temperature;BME280_humidity;BME280_pressure;Samples;Min_cycle;Max_cycle;Signal;HPM_P1;HPM_P2
2020/12/21 00:02:26;;;;;;;62.73;24.55;;;;;;;-2.04;100.00;100138.61;4318776;82;43644;-86
2020/12/21 00:08:28;;;;;;;52.35;21.60;;;;;;;-2.21;100.00;100141.27;4317874;81;43865;-84
2020/12/21 00:14:31;;;;;;;51.73;20.95;;;;;;;-2.44;100.00;100143.91;4318762;81;43632;-83
2020/12/21 00:20:33;;;;;;;55.50;21.73;;;;;;;-2.44;100.00;100150.99;4316694;81;44078;-84
2020/12/21 00:26:35;;;;;;;54.65;20.60;;;;;;;-2.43;100.00;100156.13;4317689;82;44082;-84
2020/12/21 00:32:37;;;;;;;53.42;21.02;;;;;;;-2.33;100.00;100161.53;4258876;82;44150;-85
2020/12/21 00:38:39;;;;;;;53.52;21.57;;;;;;;-2.38;100.00;100161.03;4285012;82;44095;-85
2020/12/21 00:44:41;;;;;;;58.13;22.65;;;;;;;-2.51;100.00;100166.41;4281881;82;44082;-86
2020/12/21 00:50:43;;;;;;;53.85;20.48;;;;;;;-2.32;100.00;100167.62;4311513;81;44118;-85
2020/12/21 00:56:45;;;;;;;53.08;20.68;;;;;;;-2.18;100.00;100171.34;4303672;81;44090;-82
2020/12/21 01:02:47;;;;;;;50.03;19.67;;;;;;;-2.37;100.00;100165.84;4313723;81;43578;-82
2020/12/21 01:08:50;;;;;;;54.48;21.55;;;;;;;-2.21;100.00;100174.20;4299178;81;44110;-83
2020/12/21 01:14:52;;;;;;;56.00;22.20;;;;;;;-2.32;100.00;100164.98;4316957;81;44078;-85
2020/12/21 01:20:54;;;;;;;60.75;22.20;;;;;;;-2.28;100.00;100157.22;4319431;81;44307;-84
2020/12/21 01:26:56;;;;;;;51.25;20.62;;;;;;;-2.23;100.00;100168.72;4287424;82;44461;-84
2020/12/21 01:32:58;;;;;;;54.08;21.50;;;;;;;-2.06;100.00;100176.61;4264031;81;44133;-84
2020/12/21 01:39:00;;;;;;;56.65;21.62;;;;;;;-2.13;100.00;100174.94;4295034;82;44167;-85
2020/12/21 01:45:07;;;;;;;53.30;21.85;;;;;;;-2.46;100.00;100176.13;4312667;81;44107;-85
2020/12/21 01:51:11;;;;;;;;;;;;;;;-2.07;100.00;100179.71;4244785;81;28633;-84
2020/12/21 01:57:13;;;;;;;57.20;22.15;;;;;;;-1.95;100.00;100171.33;4271471;81;44090;-84
2020/12/21 02:03:16;;;;;;;53.90;21.40;;;;;;;-2.11;100.00;100161.16;4260244;81;44084;-84
2020/12/21 02:09:19;;;;;;;61.00;23.60;;;;;;;-2.15;100.00;100160.56;4309124;81;44437;-86
2020/12/21 02:15:21;;;;;;;57.10;22.13;;;;;;;-2.02;100.00;100158.27;4303354;81;44094;-85
2020/12/21 02:21:24;;;;;;;60.55;23.40;;;;;;;-1.93;100.00;100161.49;4302433;81;44125;-85
2020/12/21 02:27:26;;;;;;;53.90;21.73;;;;;;;-2.15;100.00;100161.88;4324461;81;44097;-86
2020/12/21 02:33:28;;;;;;;52.40;21.07;;;;;;;-2.30;100.00;100169.19;4317091;81;43991;-86
2020/12/21 02:39:30;;;;;;;54.45;20.23;;;;;;;-2.18;100.00;100168.72;4313698;82;44168;-86
2020/12/21 02:45:33;;;;;;;55.23;20.90;;;;;;;-2.16;100.00;100165.94;4314388;81;44102;-86
2020/12/21 02:51:35;;;;;;;56.53;21.97;;;;;;;-2.10;100.00;100164.97;4309730;81;44163;-85
2020/12/21 02:57:37;;;;;;;56.50;21.60;;;;;;;-1.98;100.00;100172.40;4305056;81;44114;-85
2020/12/21 03:03:40;;;;;;;58.35;22.42;;;;;;;-2.05;100.00;100169.06;4310580;81;44081;-84
2020/12/21 03:09:42;;;;;;;54.20;20.40;;;;;;;-1.98;100.00;100165.81;4312278;82;44105;-81
2020/12/21 03:15:45;;;;;;;48.63;18.60;;;;;;;-2.17;100.00;100171.70;4301614;81;43818;-81
2020/12/21 03:21:47;;;;;;;50.75;18.90;;;;;;;-2.16;100.00;100168.58;4307766;82;43719;-82
2020/12/21 03:27:49;;;;;;;52.70;20.95;;;;;;;-2.15;100.00;100182.11;4306773;82;44050;-81
2020/12/21 03:33:51;;;;;;;49.90;19.50;;;;;;;-2.25;100.00;100180.68;4313600;81;43734;-81
2020/12/21 03:39:53;;;;;;;43.08;16.82;;;;;;;-2.18;100.00;100183.67;4300041;81;42905;-81
2020/12/21 03:45:55;;;;;;;53.63;19.17;;;;;;;-2.14;100.00;100187.73;4308604;81;44105;-81
2020/12/21 03:51:57;;;;;;;49.95;19.52;;;;;;;-2.15;100.00;100184.27;4309482;81;43735;-82
2020/12/21 03:57:59;;;;;;;51.88;19.87;;;;;;;-2.31;100.00;100170.61;4313990;81;43612;-84
2020/12/21 04:04:01;;;;;;;47.83;18.42;;;;;;;-2.26;100.00;100164.02;4314807;81;43731;-84
2020/12/21 04:10:07;;;;;;;55.30;21.02;;;;;;;-2.25;100.00;100155.66;4304662;81;44149;-84
2020/12/21 04:16:09;;;;;;;49.40;18.82;;;;;;;-2.27;100.00;100156.26;4303291;81;28549;-84
2020/12/21 04:22:11;;;;;;;55.85;20.52;;;;;;;-2.29;100.00;100152.87;4306365;81;44161;-84
2020/12/21 04:28:13;;;;;;;45.58;19.50;;;;;;;-2.23;100.00;100149.78;4303972;81;43735;-85
2020/12/21 04:34:17;;;;;;;51.53;19.55;;;;;;;-2.17;100.00;100156.36;4301695;81;43771;-86
2020/12/21 04:40:20;;;;;;;42.78;17.65;;;;;;;-2.25;100.00;100163.55;4305273;81;43589;-85
2020/12/21 04:46:22;;;;;;;51.15;19.45;;;;;;;-2.29;100.00;100174.81;4305280;82;44252;-85
2020/12/21 04:52:29;;;;;;;50.20;20.75;;;;;;;-2.52;100.00;100175.27;4300402;81;44429;-87
2020/12/21 04:58:32;;;;;;;54.75;20.15;;;;;;;-2.63;100.00;100173.47;4299818;81;44090;-85
2020/12/21 05:04:34;;;;;;;49.33;18.87;;;;;;;-2.52;100.00;100172.63;4305054;81;43755;-86
2020/12/21 05:10:39;;;;;;;56.45;21.45;;;;;;;-2.57;100.00;100167.72;4310726;81;44137;-85
2020/12/21 05:16:41;;;;;;;60.20;21.37;;;;;;;-2.45;100.00;100160.67;4314058;82;28565;-84
2020/12/21 05:22:49;;;;;;;50.25;20.40;;;;;;;-2.40;100.00;100170.36;4300046;82;44440;-85
2020/12/21 05:28:54;;;;;;;56.30;21.70;;;;;;;-2.25;100.00;100174.91;4315600;81;44077;-83
2020/12/21 05:35:10;;;;;;;57.23;22.32;;;;;;;-2.44;100.00;100176.02;4313526;81;44078;-85
2020/12/21 05:41:25;;;;;;;61.10;22.62;;;;;;;-2.19;100.00;100173.59;4354299;79;85631;-86
2020/12/21 05:47:28;;;;;;;58.70;21.77;;;;;;;-2.17;100.00;100188.83;4328645;81;44112;-86
2020/12/21 05:53:43;;;;;;;60.45;23.32;;;;;;;-2.25;100.00;100188.09;4335823;81;44132;-84
2020/12/21 05:59:48;;;;;;;56.65;21.12;;;;;;;-2.18;100.00;100178.41;4330249;81;44187;-85
2020/12/21 06:05:55;;;;;;;63.63;23.63;;;;;;;-2.04;100.00;100176.83;4322916;81;29059;-85
2020/12/21 06:11:58;;;;;;;55.65;21.45;;;;;;;-1.85;100.00;100176.22;4311722;80;44092;-84
2020/12/21 06:18:00;;;;;;;61.53;22.50;;;;;;;-2.11;100.00;100179.61;4339229;81;44305;-86
2020/12/21 06:24:05;;;;;;;57.45;22.62;;;;;;;-1.94;100.00;100185.33;4303479;81;44094;-87
2020/12/21 06:30:19;;;;;;;58.85;21.85;;;;;;;-1.95;100.00;100192.41;4313120;81;44077;-88
2020/12/21 06:36:26;;;;;;;59.55;22.60;;;;;;;-1.90;100.00;100193.37;4302541;81;44081;-87
2020/12/21 06:42:29;;;;;;;60.85;22.95;;;;;;;-1.79;100.00;100189.40;4310144;80;44119;-87
2020/12/21 06:48:31;;;;;;;59.60;23.25;;;;;;;-1.43;100.00;100200.57;4310611;81;44100;-86
2020/12/21 06:54:33;;;;;;;56.92;23.27;;;;;;;-1.66;100.00;100209.04;4333593;80;44080;-84
2020/12/21 07:00:35;;;;;;;63.80;22.22;;;;;;;-1.75;100.00;100213.23;4323978;82;42885;-83
2020/12/21 07:06:39;;;;;;;59.33;22.30;;;;;;;-1.63;100.00;100211.42;4320934;82;44135;-83
2020/12/21 07:12:41;;;;;;;59.42;22.90;;;;;;;-1.72;100.00;100210.83;4330740;80;44115;-84
2020/12/21 07:18:48;;;;;;;63.17;23.15;;;;;;;-1.62;100.00;100210.45;4315805;80;43650;-85
2020/12/21 07:24:50;;;;;;;64.75;23.87;;;;;;;-1.62;100.00;100202.55;4333459;80;43834;-86
2020/12/21 07:30:52;;;;;;;59.95;23.22;;;;;;;-1.45;100.00;100205.64;4333593;80;44253;-86
2020/12/21 07:36:56;;;;;;;54.93;21.87;;;;;;;-1.27;100.00;100211.21;4342389;80;44129;-84
2020/12/21 07:43:02;;;;;;;54.25;23.00;;;;;;;-1.23;100.00;100219.72;4320965;80;44082;-84
2020/12/21 07:49:07;;;;;;;57.80;21.57;;;;;;;-1.22;100.00;100218.75;4311664;80;44104;-85
2020/12/21 07:55:10;;;;;;;53.15;21.45;;;;;;;-1.19;100.00;100215.39;4245189;83;44100;-85
2020/12/21 08:01:14;;;;;;;52.00;21.90;;;;;;;-1.06;100.00;100209.09;4176237;84;43797;-87
2020/12/21 08:07:17;;;;;;;55.03;22.17;;;;;;;-1.05;100.00;100211.59;4160721;84;28612;-87
2020/12/21 08:13:19;;;;;;;49.73;21.05;;;;;;;-0.99;100.00;100211.09;4179628;84;44428;-87
2020/12/21 08:19:21;;;;;;;48.25;20.55;;;;;;;-0.92;100.00;100206.14;4186884;84;44095;-89
2020/12/21 08:25:26;;;;;;;46.50;19.52;;;;;;;-0.60;100.00;100210.52;4196251;84;43763;-88
2020/12/21 08:31:28;;;;;;;50.55;20.60;;;;;;;-0.71;100.00;100213.23;4197466;84;44059;-91
2020/12/21 08:37:32;;;;;;;46.37;19.45;;;;;;;-0.51;100.00;100214.21;4181435;83;43765;-85
2020/12/21 08:43:34;;;;;;;50.48;21.37;;;;;;;-0.47;100.00;100220.90;4178689;84;44424;-90
2020/12/21 08:49:37;;;;;;;51.90;20.15;;;;;;;-0.26;100.00;100211.26;4167835;84;43911;-89
2020/12/21 08:55:39;;;;;;;43.92;19.45;;;;;;;-0.33;100.00;100212.27;4183108;84;43738;-88
2020/12/21 09:01:42;;;;;;;52.10;21.57;;;;;;;-0.15;100.00;100204.09;4176051;84;44112;-90
2020/12/21 09:07:44;;;;;;;51.20;21.30;;;;;;;-0.08;100.00;100194.31;4181581;84;43558;-89
2020/12/21 09:13:49;;;;;;;48.05;19.60;;;;;;;-0.11;100.00;100194.56;4212002;84;43734;-90
2020/12/21 09:19:53;;;;;;;41.92;19.37;;;;;;;-0.05;100.00;100193.57;4169335;85;43221;-90
2020/12/21 09:25:56;;;;;;;57.25;20.95;;;;;;;0.16;100.00;100190.48;4239149;84;44098;-91
2020/12/21 09:31:59;;;;;;;46.05;20.70;;;;;;;0.18;100.00;100189.39;4199577;84;43818;-90
2020/12/21 09:38:02;;;;;;;49.15;20.50;;;;;;;0.23;100.00;100185.84;4172629;84;28596;-90
2020/12/21 09:44:06;;;;;;;48.33;20.65;;;;;;;0.38;100.00;100177.03;4170780;84;43757;-92
2020/12/21 09:50:08;;;;;;;51.73;22.10;;;;;;;0.45;100.00;100179.97;4207739;84;43586;-90
2020/12/21 09:56:16;;;;;;;52.20;22.82;;;;;;;0.66;100.00;100163.13;4213924;83;44082;-88
2020/12/21 10:02:18;;;;;;;56.77;23.87;;;;;;;0.78;100.00;100164.69;4169368;84;28601;-84
2020/12/21 10:08:20;;;;;;;67.42;25.30;;;;;;;0.72;100.00;100157.77;4194884;84;28608;-82
2020/12/21 10:14:24;;;;;;;60.35;24.55;;;;;;;0.87;100.00;100153.73;4175658;84;28585;-82
2020/12/21 10:20:26;;;;;;;63.17;26.23;;;;;;;0.89;100.00;100145.66;4191653;84;28655;-84
2020/12/21 10:26:28;;;;;;;67.85;27.75;;;;;;;0.84;100.00;100146.08;4190676;84;28627;-85
2020/12/21 10:32:31;;;;;;;68.22;30.17;;;;;;;0.77;100.00;100144.96;4205738;84;44145;-84
2020/12/21 10:38:33;;;;;;;74.45;31.15;;;;;;;0.79;100.00;100133.73;4214891;83;43929;-85
2020/12/21 10:44:38;;;;;;;81.87;31.90;;;;;;;1.00;100.00;100126.13;4239252;83;42548;-83
2020/12/21 10:50:43;;;;;;;75.32;30.20;;;;;;;1.10;100.00;100127.79;4239253;83;28604;-83
2020/12/21 10:56:45;;;;;;;70.35;28.15;;;;;;;1.24;100.00;100123.02;4238523;83;28714;-85
2020/12/21 11:02:47;;;;;;;66.92;27.52;;;;;;;1.42;100.00;100120.44;4234586;83;28567;-83
2020/12/21 11:08:54;;;;;;;65.67;29.98;;;;;;;1.36;100.00;100118.39;4230197;83;28565;-84
2020/12/21 11:14:56;;;;;;;69.90;28.23;;;;;;;1.41;100.00;100105.52;4246122;83;28549;-82
2020/12/21 11:20:59;;;;;;;69.82;29.65;;;;;;;1.34;100.00;100117.19;4251446;83;28620;-83
2020/12/21 11:27:02;;;;;;;63.48;27.25;;;;;;;1.33;100.00;100100.95;4232837;83;28588;-84
2020/12/21 11:33:07;;;;;;;72.70;28.90;;;;;;;1.18;100.00;100092.63;4237032;83;28566;-82
2020/12/21 11:39:11;;;;;;;60.80;27.10;;;;;;;1.23;100.00;100087.72;4220593;82;28658;-83
2020/12/21 11:45:14;;;;;;;71.82;29.05;;;;;;;1.23;100.00;100086.90;4204076;84;28561;-81
2020/12/21 11:51:17;;;;;;;68.28;29.65;;;;;;;1.14;100.00;100078.48;4200240;84;28624;-82
2020/12/21 11:57:20;;;;;;;64.58;28.55;;;;;;;1.22;100.00;100069.34;4190322;84;28557;-82
2020/12/21 12:03:23;;;;;;;68.95;30.30;;;;;;;1.19;100.00;100082.85;4182763;84;28593;-84
2020/12/21 12:09:25;;;;;;;69.58;30.12;;;;;;;1.19;100.00;100095.63;4189511;84;28557;-81
2020/12/21 12:15:27;;;;;;;68.15;29.98;;;;;;;1.37;100.00;100088.25;4196609;83;44106;-83
2020/12/21 12:21:30;;;;;;;73.37;31.05;;;;;;;1.22;100.00;100087.38;4172035;84;44116;-83
2020/12/21 12:27:32;;;;;;;74.27;32.35;;;;;;;1.22;100.00;100079.43;4170368;84;28640;-83
2020/12/21 12:33:34;;;;;;;83.12;36.25;;;;;;;1.15;100.00;100078.36;4171336;84;28577;-83
2020/12/21 12:39:36;;;;;;;73.50;32.03;;;;;;;1.21;100.00;100077.76;4172067;82;44130;-83
2020/12/21 12:45:39;;;;;;;79.22;33.63;;;;;;;1.23;100.00;100082.42;4194821;84;28557;-84
2020/12/21 12:51:41;;;;;;;79.27;33.60;;;;;;;1.33;100.00;100078.91;4196292;84;28627;-78
2020/12/21 12:57:43;;;;;;;77.67;33.20;;;;;;;1.61;100.00;100077.61;4186782;84;28614;-77
2020/12/21 13:03:46;;;;;;;83.03;35.70;;;;;;;1.72;100.00;100092.47;4190199;84;28574;-79
2020/12/21 13:09:49;;;;;;;84.37;37.03;;;;;;;1.67;100.00;100094.27;4211221;83;28577;-78
2020/12/21 13:15:52;;;;;;;82.30;36.25;;;;;;;1.75;100.00;100091.69;4185289;84;28561;-79
2020/12/21 13:21:54;;;;;;;83.35;36.10;;;;;;;1.76;100.00;100091.22;4178024;84;28559;-78
2020/12/21 13:27:56;;;;;;;83.33;36.88;;;;;;;1.62;100.00;100093.86;4175813;84;29083;-81
2020/12/21 13:33:59;;;;;;;83.90;37.23;;;;;;;1.71;100.00;100092.98;4191045;84;28572;-81
2020/12/21 13:40:07;;;;;;;91.53;40.07;;;;;;;1.79;100.00;100097.54;4186340;84;28567;-80
2020/12/21 13:46:10;;;;;;;92.53;39.85;;;;;;;1.72;100.00;100092.47;4185255;84;28609;-81
2020/12/21 13:52:14;;;;;;;76.75;36.68;;;;;;;1.55;100.00;100092.77;4187172;84;28604;-79
2020/12/21 13:58:20;;;;;;;79.20;36.35;;;;;;;1.44;100.00;100095.13;4180650;84;28573;-79
2020/12/21 14:04:22;;;;;;;77.47;35.30;;;;;;;1.34;100.00;100088.52;4191789;84;28623;-80
2020/12/21 14:10:26;;;;;;;82.47;39.48;;;;;;;1.34;100.00;100093.34;4193501;84;28584;-80
2020/12/21 14:16:28;;;;;;;79.22;38.10;;;;;;;1.45;100.00;100092.81;4184503;84;28577;-79
2020/12/21 14:22:31;;;;;;;85.67;37.17;;;;;;;1.30;100.00;100091.13;4191942;84;28616;-77
2020/12/21 14:28:33;;;;;;;89.77;38.33;;;;;;;1.17;100.00;100096.73;4199223;84;44463;-78
2020/12/21 14:34:35;;;;;;;81.57;36.13;;;;;;;1.13;100.00;100090.06;4197274;84;43428;-76
2020/12/21 14:40:37;;;;;;;78.07;35.33;;;;;;;1.07;100.00;100080.87;4194744;84;43418;-75
2020/12/21 14:46:40;;;;;;;87.20;38.15;;;;;;;0.90;100.00;100075.84;4210130;84;28565;-76
2020/12/21 14:52:44;;;;;;;86.57;38.67;;;;;;;0.79;100.00;100078.98;4177519;84;44309;-78
2020/12/21 14:58:48;;;;;;;87.88;37.50;;;;;;;0.52;100.00;100077.89;4177831;84;44443;-79
2020/12/21 15:04:50;;;;;;;89.13;37.17;;;;;;;0.24;100.00;100084.34;4191462;84;44474;-78
2020/12/21 15:10:54;;;;;;;75.62;34.90;;;;;;;0.34;100.00;100078.23;4190069;84;28617;-78
2020/12/21 15:16:56;;;;;;;82.22;38.65;;;;;;;0.45;100.00;100070.66;4183287;84;28675;-79
2020/12/21 15:22:59;;;;;;;76.20;35.50;;;;;;;0.37;100.00;100070.03;4189909;84;43335;-82
2020/12/21 15:29:01;;;;;;;80.20;35.48;;;;;;;0.22;100.00;100078.87;4221399;84;43388;-82
2020/12/21 15:35:03;;;;;;;86.57;37.00;;;;;;;0.23;100.00;100073.42;4199046;84;28551;-81
2020/12/21 15:41:05;;;;;;;74.07;33.98;;;;;;;0.29;100.00;100067.24;4204324;83;44091;-84
2020/12/21 15:47:07;;;;;;;78.02;34.78;;;;;;;0.46;100.00;100064.38;4192891;84;28596;-83
2020/12/21 15:53:10;;;;;;;75.05;33.95;;;;;;;0.21;100.00;100054.69;4167762;85;43508;-88
2020/12/21 15:59:12;;;;;;;74.17;33.80;;;;;;;0.12;100.00;100062.97;4192907;84;44096;-80
2020/12/21 16:05:15;;;;;;;68.30;31.10;;;;;;;0.05;100.00;100053.91;4173328;84;44090;-80
2020/12/21 16:11:17;;;;;;;92.17;37.50;;;;;;;0.06;100.00;100050.32;4193528;84;44426;-81
2020/12/21 16:17:20;;;;;;;85.28;35.00;;;;;;;0.03;100.00;100059.36;4182161;84;28665;-81
2020/12/21 16:23:22;;;;;;;82.90;36.20;;;;;;;-0.12;100.00;100052.78;4187163;84;43430;-82
2020/12/21 16:29:24;;;;;;;72.40;31.52;;;;;;;-0.06;100.00;100054.37;4192014;84;44085;-83
2020/12/21 16:35:27;;;;;;;72.42;32.00;;;;;;;-0.11;100.00;100049.16;4197512;84;44084;-81
2020/12/21 16:41:29;;;;;;;69.53;30.88;;;;;;;-0.03;100.00;100051.48;4228690;82;44094;-79
2020/12/21 16:53:48;;;;;;;74.20;31.07;;;;;;;0.05;100.00;100044.66;4547488;76;86021;-77
2020/12/21 16:59:51;;;;;;;71.82;30.68;;;;;;;-0.10;100.00;100047.70;4441008;79;44169;-78
2020/12/21 17:05:54;;;;;;;71.02;31.27;;;;;;;-0.16;100.00;100041.16;4419785;79;44077;-80
2020/12/21 17:12:00;;;;;;;72.67;30.95;;;;;;;-0.11;100.00;100033.30;4395536;79;44138;-82
2020/12/21 17:18:02;;;;;;;79.53;31.60;;;;;;;-0.19;100.00;100038.80;4438344;79;43291;-81
2020/12/21 17:24:06;;;;;;;80.83;32.33;;;;;;;-0.20;100.00;100040.25;4343092;81;42993;-79
2020/12/21 17:30:08;;;;;;;84.45;33.20;;;;;;;-0.12;100.00;100045.69;4316302;82;28577;-85
2020/12/21 17:36:10;;;;;;;94.28;32.55;;;;;;;-0.05;100.00;100050.80;4214298;84;44127;-81
2020/12/21 17:42:13;;;;;;;92.17;34.10;;;;;;;-0.20;100.00;100062.72;4314916;81;44120;-80
2020/12/21 17:48:15;;;;;;;91.10;35.58;;;;;;;-0.09;100.00;100063.92;4357496;81;44451;-83
2020/12/21 17:54:19;;;;;;;86.17;35.03;;;;;;;-0.10;100.00;100056.14;4315981;81;44089;-80
2020/12/21 18:00:21;;;;;;;93.45;34.98;;;;;;;-0.01;100.00;100052.66;4275106;81;44276;-81
2020/12/21 18:06:25;;;;;;;95.60;35.23;;;;;;;0.05;100.00;100048.15;4291969;81;44472;-81
2020/12/21 18:12:27;;;;;;;97.33;38.02;;;;;;;0.06;100.00;100045.03;4287003;81;42899;-78
2020/12/21 18:18:30;;;;;;;99.80;34.25;;;;;;;0.19;100.00;100032.84;4283928;81;44208;-80
2020/12/21 18:24:32;;;;;;;84.28;34.85;;;;;;;0.21;100.00;100028.23;4303087;81;43481;-80
2020/12/21 18:30:35;;;;;;;82.37;34.35;;;;;;;0.21;100.00;100026.91;4301164;81;43041;-79
2020/12/21 18:36:38;;;;;;;84.83;33.08;;;;;;;0.17;100.00;100025.53;4290273;81;43041;-79
2020/12/21 18:42:40;;;;;;;77.03;33.45;;;;;;;0.31;100.00;100009.73;4279564;81;42707;-81
2020/12/21 18:48:43;;;;;;;85.15;35.33;;;;;;;0.35;100.00;100006.67;4289023;81;44130;-83
2020/12/21 18:54:45;;;;;;;79.53;34.45;;;;;;;0.37;100.00;100013.16;4272006;82;43128;-81
2020/12/21 19:00:47;;;;;;;85.15;36.70;;;;;;;0.21;100.00;100007.08;4302369;81;44135;-84
2020/12/21 19:06:49;;;;;;;87.35;36.20;;;;;;;0.33;100.00;99998.52;4335054;81;44474;-84
2020/12/21 19:12:51;;;;;;;88.52;36.77;;;;;;;0.19;100.00;100001.09;4291944;81;44425;-78
2020/12/21 19:18:54;;;;;;;88.35;37.42;;;;;;;0.14;100.00;99994.91;4292380;81;44472;-74
2020/12/21 19:24:57;;;;;;;88.60;37.38;;;;;;;0.08;100.00;100004.73;4281832;81;44429;-76
2020/12/21 19:30:59;;;;;;;92.62;37.85;;;;;;;0.35;100.00;99995.23;4292413;81;44523;-74
2020/12/21 19:37:01;;;;;;;93.37;37.75;;;;;;;0.32;100.00;99993.73;4295026;81;44452;-75
2020/12/21 19:43:03;;;;;;;93.35;38.42;;;;;;;0.24;100.00;99983.02;4292871;81;44488;-76
2020/12/21 19:49:05;;;;;;;89.87;38.85;;;;;;;0.20;100.00;99969.23;4299383;81;44446;-79
2020/12/21 19:55:08;;;;;;;91.00;38.23;;;;;;;0.17;100.00;99969.99;4255710;82;44429;-78
2020/12/21 20:01:10;;;;;;;86.15;37.38;;;;;;;0.22;100.00;99979.17;4248679;82;44280;-77
2020/12/21 20:07:12;;;;;;;79.40;34.75;;;;;;;0.03;100.00;99987.11;4323444;81;43214;-78
2020/12/21 20:13:14;;;;;;;85.10;37.83;;;;;;;0.10;100.00;99969.22;4325832;81;44455;-84
2020/12/21 20:19:19;;;;;;;87.10;36.33;;;;;;;0.19;100.00;99980.78;4252610;81;44452;-85
2020/12/21 20:25:21;;;;;;;92.92;37.80;;;;;;;0.20;100.00;99964.41;4338985;81;44485;-82
2020/12/21 20:31:23;;;;;;;83.03;35.73;;;;;;;0.09;100.00;99964.09;4282715;82;43404;-82
2020/12/21 20:37:25;;;;;;;89.05;38.33;;;;;;;0.16;100.00;99949.81;4258078;81;44429;-80
2020/12/21 20:43:27;;;;;;;85.67;35.25;;;;;;;0.23;100.00;99939.03;4258074;82;44109;-81
2020/12/21 20:49:31;;;;;;;80.97;34.95;;;;;;;0.42;100.00;99942.11;4345148;81;28676;-86
2020/12/21 20:55:35;;;;;;;82.80;35.52;;;;;;;0.35;100.00;99943.65;4284994;81;43466;-84
2020/12/21 21:01:37;;;;;;;84.22;35.03;;;;;;;0.08;100.00;99951.34;4295663;81;43088;-85
2020/12/21 21:07:43;;;;;;;72.92;33.75;;;;;;;0.11;100.00;99948.91;4301259;81;44132;-82
2020/12/21 21:13:56;;;;;;;73.70;33.23;;;;;;;0.15;100.00;99956.08;4292084;82;28596;-82
2020/12/21 21:19:58;;;;;;;77.87;33.98;;;;;;;0.08;100.00;99954.48;4303524;81;43100;-83
2020/12/21 21:26:19;;;;;;;73.57;34.05;;;;;;;0.25;100.00;99945.00;4251645;81;45025;-84
2020/12/21 21:32:24;;;;;;;74.45;33.45;;;;;;;0.22;100.00;99941.33;4287622;81;29044;-87
2020/12/21 21:38:26;;;;;;;78.55;34.55;;;;;;;0.34;100.00;99928.28;4303375;81;43041;-87
2020/12/21 21:44:29;;;;;;;71.95;33.67;;;;;;;0.32;100.00;99913.52;4262405;81;44132;-88
2020/12/21 21:50:36;;;;;;;79.00;34.58;;;;;;;0.21;100.00;99915.35;4271150;82;28566;-88
2020/12/21 21:56:40;;;;;;;72.62;33.60;;;;;;;0.35;100.00;99908.78;4293440;81;28584;-87
2020/12/21 22:02:45;;;;;;;;;;;;;;;0.18;100.00;99908.19;4225947;82;28583;-88
2020/12/21 22:08:49;;;;;;;84.03;36.93;;;;;;;0.30;100.00;99900.94;4257738;82;21378;-87
2020/12/21 22:14:51;;;;;;;90.22;40.88;;;;;;;0.17;100.00;99905.20;4318088;81;44464;-87
2020/12/21 22:20:54;;;;;;;90.72;40.38;;;;;;;0.03;100.00;99888.80;4243697;84;28574;-87
2020/12/21 22:26:58;;;;;;;105.78;43.78;;;;;;;-0.11;100.00;99872.88;4312775;81;44279;-89
2020/12/21 22:33:02;;;;;;;106.03;44.63;;;;;;;-0.19;100.00;99862.17;4254761;82;28616;-88
2020/12/21 22:39:11;;;;;;;109.57;47.93;;;;;;;-0.07;100.00;99861.04;4280514;82;28580;-86
2020/12/21 22:45:13;;;;;;;;;;;;;;;-0.19;100.00;99863.02;4312036;82;28566;-87
2020/12/21 22:51:15;;;;;;;102.27;43.02;;;;;;;-0.19;100.00;99848.95;4239120;83;44264;-88
2020/12/21 22:57:20;;;;;;;98.65;43.40;;;;;;;-0.53;100.00;99849.41;4282166;82;43869;-87
2020/12/21 23:03:26;;;;;;;103.20;42.98;;;;;;;-0.49;100.00;99851.63;4278170;83;44280;-85
2020/12/21 23:09:29;;;;;;;114.45;46.18;;;;;;;-0.71;100.00;99840.83;4221226;84;43074;-86
2020/12/21 23:15:32;;;;;;;128.55;50.83;;;;;;;-0.76;100.00;99839.11;4260812;83;28612;-86
2020/12/21 23:21:34;;;;;;;115.42;46.60;;;;;;;-0.80;100.00;99846.47;4260123;83;44179;-86
2020/12/21 23:27:38;;;;;;;104.55;43.92;;;;;;;-0.97;100.00;99829.97;4254631;82;44381;-86
2020/12/21 23:33:41;;;;;;;118.15;48.28;;;;;;;-0.85;100.00;99823.11;4261705;82;43904;-86
2020/12/21 23:39:43;;;;;;;109.80;47.00;;;;;;;-1.03;100.00;99822.95;4304007;81;44251;-86
2020/12/21 23:45:45;;;;;;;101.75;44.23;;;;;;;-1.06;100.00;99824.53;4295485;82;43828;-86
2020/12/21 23:51:47;;;;;;;109.65;44.13;;;;;;;-1.27;100.00;99824.13;4322839;81;44271;-85
2020/12/21 23:57:49;;;;;;;101.65;42.95;;;;;;;-1.24;100.00;99807.20;4319057;81;43474;-87
